createdAt,value
2022-08-18T16:53:55.809Z,9.70
2022-08-18T17:04:13.651Z,9.80
2022-08-18T17:14:30.540Z,9.40
2022-08-18T17:24:37.843Z,9.90
2022-08-18T17:35:00.939Z,10.50
2022-08-18T17:45:08.981Z,10.30
2022-08-18T17:55:20.167Z,11.70
2022-08-18T18:05:29.984Z,11.60
2022-08-18T18:15:40.216Z,13.40
2022-08-18T18:25:47.569Z,11.90
2022-08-18T18:35:59.265Z,9.90
2022-08-18T18:46:21.084Z,10.70
2022-08-18T18:56:30.314Z,11.10
2022-08-18T19:06:48.040Z,10.60
2022-08-18T19:16:58.036Z,10.90
2022-08-18T19:27:23.152Z,11.90
2022-08-18T19:37:31.260Z,9.90
2022-08-18T19:47:41.966Z,10.40
2022-08-18T19:58:01.571Z,11.40
2022-08-18T20:08:36.366Z,12.20
2022-08-18T20:18:46.216Z,10.70
2022-08-18T20:28:52.676Z,9.80
2022-08-18T20:39:01.344Z,10.50
2022-08-18T20:49:19.586Z,12.10
2022-08-18T20:59:30.285Z,12.90
2022-08-18T21:09:37.325Z,13.80
2022-08-18T21:19:44.503Z,10.80
2022-08-18T21:29:51.656Z,12.50
2022-08-18T21:40:01.374Z,11.90
2022-08-18T22:10:51.467Z,11.90
2022-08-18T22:21:00.027Z,12.50
2022-08-18T22:31:07.963Z,12.90
2022-08-18T22:41:11.659Z,12.10
2022-08-18T22:51:19.989Z,12.80
2022-08-18T23:01:27.994Z,14.30
2022-08-18T23:11:35.085Z,15.20
2022-08-18T23:21:41.421Z,12.30
2022-08-18T23:31:49.841Z,12.80
2022-08-18T23:41:58.103Z,14.70
2022-08-18T23:52:05.891Z,15.00
